Oakland, Tennessee
Current Conditions -  °F | °C
As of 11:50 PM on Friday 28 Nov 2014 (Local Time) from KNQA Reporting Station
Clear Clear  
Wind Chill: 42°   Ceiling: Unl
Heat Index: 46°   Visibility: 10mi
Dew Point: 28°   Wind: 8mph
Humidity: 50%   Direction: 150°SSE
Pressure: 30.07"   Gusts: NA
Location:  35.23°N, 89.52°W
Report Text: KNQA 290550Z 15007KT 10SM SKC 08/M02 A3007
Loading
Personal Weather Stations






























Interactive Weather Map New forecast layout! Learn more

10-Day Weather Forecast

Advertisements
Track Severe Weather on mobile